• Join FlightAware (Why Join?)
  • Login
  • US Flag 
01:15AM EDT


 

Airport Tracker/Info


-or-


 

Live Flight TrackerFlight Track Log ✈ SWA158 ✈ 16-Apr-2013 ✈ KMDW - KMHT

Flight Track Log - Related Links

Times and Time Zones

All times are in EDT time to prevent confusion due to time zone crossing. See the SWA158 flight status page for this flight to view local times or setup timezone preferences in your user account.

Time Position Orientation Groundspeed Altitude Reporting Facility
EDT Latitude Longitude Course Direction KTS MPH feet Rate Location/Type
02:49PM 41.8000 -87.7000 86° East 177 204 2,300  Level Chicago TRACON
02:51PM 41.7897 -87.5736 96° East 244 281 4,600 2,100 Climbing Chicago Center
02:52PM 41.8058 -87.4658 79° East 279 321 7,700 2,760 Climbing Chicago Center
02:53PM 41.7944 -87.3481 97° East 317 365 10,400 2,820 Climbing Chicago Center
02:54PM 41.7797 -87.2189 99° East 344 396 13,500 3,120 Climbing Chicago Center
02:55PM 41.7522 -86.7771 86° East  Level FlightAware Approximate
02:55PM 41.7636 -87.0858 99° East 360 414 16,800  Level Chicago Center
02:56PM 41.7619 -86.9439 91° East 381 438 19,500 2,340 Climbing Chicago Center
02:57PM 41.7644 -86.7547 89° East 430 495 21,700 1,980 Climbing Chicago Center
02:58PM 41.7658 -86.6003 89° East 454 522 23,700 2,100 Climbing Chicago Center
02:59PM 41.7678 -86.4228 89° East 474 545 26,100 2,040 Climbing Chicago Center
03:00PM 41.7806 -86.2422 85° East 486 559 28,000 1,860 Climbing Chicago Center
03:01PM 41.8197 -86.0219 77° East 505 581 30,000 1,740 Climbing Chicago Center
03:02PM 41.8519 -85.8322 77° East 516 594 31,700 1,620 Climbing Chicago Center
03:03PM 41.8842 -85.6381 77° East 527 606 33,400 1,560 Climbing Chicago Center
03:04PM 41.9175 -85.4417 77° East 533 613 35,000 1,440 Climbing Chicago Center
03:05PM 41.9339 -85.3514 76° East 524 603 35,500 1,200 Climbing Cleveland Center
03:06PM 41.9544 -85.1517 82° East 529 609 36,800 1,200 Climbing Cleveland Center
03:07PM 41.9539 -84.9533 90° East 529 609 38,000 840 Climbing Cleveland Center
03:08PM 41.9508 -84.7519 91° East 534 615 38,500 480 Climbing Cleveland Center
03:09PM 41.9497 -84.5508 90° East 534 615 39,000 240 Climbing Cleveland Center
03:10PM 41.9483 -84.3469 90° East 539 620 39,000  Level Cleveland Center
03:11PM 41.9414 -84.1678 93° East 534 615 39,000  Level Cleveland Center
03:12PM 41.9394 -83.9583 91° East 540 621 39,000  Level Cleveland Center
03:13PM 41.9369 -83.7569 91° East 540 621 39,000  Level Cleveland Center
03:14PM 41.9344 -83.5364 91° East 540 621 39,000  Level Cleveland Center
03:15PM 41.9331 -83.3381 90° East 530 610 39,000  Level Cleveland Center
03:16PM 41.9294 -83.1369 91° East 536 617 39,000  Level Cleveland Center
03:17PM 41.9294 -82.9389 90° East 536 617 39,000  Level Cleveland Center
03:18PM 41.9272 -82.7378 91° East 529 609 39,000  Level Cleveland Center
03:19PM 41.9267 -82.5422 90° East 529 609 39,000  Level Cleveland Center
03:20PM 41.9236 -82.3442 91° East 535 616 39,000  Level Cleveland Center
03:21PM 41.9203 -82.1431 91° East 535 616 39,000  Level Cleveland Center
03:22PM 41.9203 -81.9617 90° East 535 616 39,000  Level Cleveland Center
03:23PM 41.9269 -81.7608 87° East 535 616 39,000  Level Cleveland Center
03:24PM 41.9517 -81.5408 81° East 535 616 39,000  Level Cleveland Center
03:25PM 41.9719 -81.3428 82° East 540 621 39,000  Level Cleveland Center
03:26PM 41.9919 -81.1447 82° East 540 621 39,000  Level Cleveland Center
03:27PM 42.0114 -80.9492 82° East 540 621 39,000  Level Cleveland Center
03:28PM 42.0350 -80.7508 81° East 540 621 39,000  Level Cleveland Center
03:29PM 42.0539 -80.5525 83° East 540 621 39,000  Level Cleveland Center
03:30PM 42.0744 -80.3539 82° East 535 616 39,000  Level Cleveland Center
03:31PM 42.0906 -80.1775 83° East 535 616 39,000  Level Cleveland Center
03:32PM 42.1106 -79.9617 83° East 535 616 39,000  Level Cleveland Center
03:33PM 42.1281 -79.7853 82° East 535 616 39,000  Level Cleveland Center
03:34PM 42.1475 -79.5889 82° East 535 616 39,000  Level Cleveland Center
03:35PM 42.1664 -79.3953 82° East 530 610 39,000  Level Cleveland Center
03:36PM 42.1831 -79.1961 83° East 525 604 39,000  Level Cleveland Center
03:37PM 42.2036 -79.0050 82° East 520 598 39,000  Level Cleveland Center
03:38PM 42.2297 -78.8108 80° East 520 598 39,000  Level Cleveland Center
03:39PM 42.2539 -78.6167 80° East 525 604 39,000  Level Cleveland Center
03:40PM 42.2794 -78.4222 80° East 525 604 39,000  Level Cleveland Center
03:41PM 42.3028 -78.2250 81° East 525 604 39,000  Level Cleveland Center
03:42PM 42.3258 -78.0331 81° East 525 604 39,000  Level Cleveland Center
03:43PM 42.3483 -77.8411 81° East 525 604 39,000  Level Cleveland Center
03:44PM 42.3686 -77.6461 82° East 525 604 39,000  Level Cleveland Center
03:46PM 42.4219 -77.1914 81° East 531 611 39,000  Level Boston Center
03:47PM 42.4472 -76.9764 81° East 518 596 39,000  Level Boston Center
03:48PM 42.4675 -76.7836 82° East 518 596 39,000  Level Boston Center
03:49PM 42.4869 -76.5936 82° East 518 596 39,000  Level Boston Center
03:50PM 42.5086 -76.3978 81° East 518 596 39,000  Level Boston Center
03:51PM 42.5247 -76.2269 83° East 513 590 39,000  Level Boston Center
03:52PM 42.5478 -76.0336 81° East 513 590 39,000  Level Boston Center
03:53PM 42.6253 -75.8858 54° Northeast 495 570 39,000  Level Boston Center
03:54PM 42.7364 -75.7308 46° Northeast 474 545 39,000  Level Boston Center
03:55PM 42.8053 -75.5731 59° Northeast 451 519 39,000  Level Boston Center
03:56PM 42.8003 -75.3747 92° East 484 557 39,000 -420 Level Boston Center
03:57PM 42.7947 -75.1792 92° East 510 587 38,200 -1,680 Descending Boston Center
03:58PM 42.7889 -74.9808 92° East 519 597 35,700 -2,820 Descending Boston Center
03:59PM 42.7825 -74.7881 93° East 519 597 32,600 -2,400 Descending Boston Center
04:00PM 42.7447 -74.6000 105° East 519 597 31,000 -1,200 Descending Boston Center
04:01PM 42.6914 -74.4286 113° Southeast 503 579 30,300 -540 Descending Boston Center
04:02PM 42.6106 -74.2878 128° Southeast 474 545 30,000 -480 Descending Boston Center
04:03PM 42.6028 -74.1100 93° East 451 519 29,400 -840 Descending Boston Center
04:04PM 42.6261 -73.9300 80° East 457 526 28,400 -1,020 Descending Boston Center
04:05PM 42.6450 -73.7497 82° East 463 533 27,400 -1,020 Descending Boston Center
04:06PM 42.6678 -73.5781 80° East 468 539 26,400 -1,020 Descending Boston Center
04:07PM 42.6861 -73.3892 82° East 462 532 25,400 -1,080 Descending Boston Center
04:08PM 42.7042 -73.2197 82° East 462 532 24,300 -1,380 Descending Boston Center
04:09PM 42.7217 -73.0533 82° East 457 526 22,800 -1,740 Descending Boston Center
04:10PM 42.7350 -72.8981 83° East 450 518 21,000 -1,920 Descending Boston Center
04:11PM 42.7544 -72.7314 81° East 426 490 19,000 -1,680 Descending Boston Center
04:13PM 42.7692 -72.5731 83° East 416 479 17,300 -2,040 Descending Boston Center
04:14PM 42.7858 -72.3864 83° East 416 479 14,600 -2,460 Descending Boston Center
04:15PM 42.8003 -72.2336 83° East 411 473 12,400 -2,040 Descending Boston Center
04:16PM 42.8083 -72.1006 85° East 399 459 10,600 -1,440 Descending Boston Center
04:17PM 42.8203 -71.9561 84° East 362 417 9,600 -1,200 Descending Boston Center
04:18PM 42.8447 -71.8483 73° East 330 380 8,300 -1,380 Descending Boston Center
04:19PM 42.9069 -71.7483 50° Northeast 314 361 6,800 -1,680 Descending Boston Center
04:20PM 42.9583 -71.6656 50° Northeast 309 356 5,000 -1,320 Descending Boston Center
04:21PM 43.0244 -71.5881 41° Northeast 297 342 4,200 -1,080 Descending Boston Center
04:22PM 43.0658 -71.5278 47° Northeast 260 299 2,900 -1,140 Descending Boston Center
04:23PM 43.0322 -71.4942 144° Southeast 131 151 2,000 -720 Descending Boston Center
04:24PM 43.0028 -71.4778 158° South 127 146 1,600 -660 Descending Boston Center
04:25PM 42.9672 -71.4556 155° Southeast 127 146 800 -600 Descending Boston Center
04:26PM 42.9378 -71.4389 157° South 127 146 400 9,000 Descending Boston Center
04:27PM 42.9064 -71.4253 162° South 127 146 19,000 9,180 Climbing Boston Center
04:28PM 42.8750 -71.4117 162° South 127 146 19,000  Level Boston Center
04:29PM 42.8436 -71.3981 162° South 127 146 19,000  Level Boston Center
04:31PM 42.9167 -71.4333 316° Northwest  Level FlightAware Approximate
04:38PM 42.9328 -71.4358 316° Northwest  Level Estimated
04:39PM 42.9328 -71.4358 316° Northwest  Level Estimated
04:40PM 42.9328 -71.4358 316° Northwest  Level Estimated